sensor_id;sensor_type;location;lat;lon;timestamp;temperature;humidity
18541;DHT22;9400;50.924;5.328;2023-02-15T00:01:39;4.90;1.00
18541;DHT22;9400;50.924;5.328;2023-02-15T00:04:07;4.90;1.00
18541;DHT22;9400;50.924;5.328;2023-02-15T00:06:35;4.80;1.00
18541;DHT22;9400;50.924;5.328;2023-02-15T00:09:04;4.70;1.00
18541;DHT22;9400;50.924;5.328;2023-02-15T00:11:32;4.70;1.00
18541;DHT22;9400;50.924;5.328;2023-02-15T00:14:17;4.60;1.00
18541;DHT22;9400;50.924;5.328;2023-02-15T00:16:46;4.60;1.00
18541;DHT22;9400;50.924;5.328;2023-02-15T00:19:15;4.60;1.00
18541;DHT22;9400;50.924;5.328;2023-02-15T00:21:44;4.60;1.00
18541;DHT22;9400;50.924;5.328;2023-02-15T00:24:16;4.50;1.00
18541;DHT22;9400;50.924;5.328;2023-02-15T00:26:44;4.50;1.00
18541;DHT22;9400;50.924;5.328;2023-02-15T00:29:13;4.40;1.00
18541;DHT22;9400;50.924;5.328;2023-02-15T00:31:42;4.40;1.00
18541;DHT22;9400;50.924;5.328;2023-02-15T00:34:12;4.30;99.90
18541;DHT22;9400;50.924;5.328;2023-02-15T00:36:41;4.30;99.90
18541;DHT22;9400;50.924;5.328;2023-02-15T00:39:09;4.30;99.90
18541;DHT22;9400;50.924;5.328;2023-02-15T00:41:38;4.30;76.90
18541;DHT22;9400;50.924;5.328;2023-02-15T00:44:06;4.30;88.40
18541;DHT22;9400;50.924;5.328;2023-02-15T00:46:34;4.30;1.00
18541;DHT22;9400;50.924;5.328;2023-02-15T00:49:03;4.30;1.00
18541;DHT22;9400;50.924;5.328;2023-02-15T00:51:31;4.20;1.00
18541;DHT22;9400;50.924;5.328;2023-02-15T00:53:59;4.20;1.00
18541;DHT22;9400;50.924;5.328;2023-02-15T00:56:27;4.20;1.00
18541;DHT22;9400;50.924;5.328;2023-02-15T00:58:56;4.20;1.00
18541;DHT22;9400;50.924;5.328;2023-02-15T01:01:23;4.20;1.00
18541;DHT22;9400;50.924;5.328;2023-02-15T01:03:52;4.10;1.00
18541;DHT22;9400;50.924;5.328;2023-02-15T01:06:20;4.10;1.00
18541;DHT22;9400;50.924;5.328;2023-02-15T01:08:48;4.10;1.00
18541;DHT22;9400;50.924;5.328;2023-02-15T01:11:21;4.10;1.00
18541;DHT22;9400;50.924;5.328;2023-02-15T01:13:51;4.20;1.00
18541;DHT22;9400;50.924;5.328;2023-02-15T01:16:21;4.10;1.00
18541;DHT22;9400;50.924;5.328;2023-02-15T01:18:49;4.10;1.00
18541;DHT22;9400;50.924;5.328;2023-02-15T01:21:20;4.20;1.00
18541;DHT22;9400;50.924;5.328;2023-02-15T01:23:48;4.20;26.10
18541;DHT22;9400;50.924;5.328;2023-02-15T01:26:16;4.20;1.00
18541;DHT22;9400;50.924;5.328;2023-02-15T01:28:44;4.20;40.80
18541;DHT22;9400;50.924;5.328;2023-02-15T01:31:13;4.10;1.00
18541;DHT22;9400;50.924;5.328;2023-02-15T01:33:42;4.10;1.00
18541;DHT22;9400;50.924;5.328;2023-02-15T01:36:10;4.00;1.00
18541;DHT22;9400;50.924;5.328;2023-02-15T01:38:37;3.90;1.00
18541;DHT22;9400;50.924;5.328;2023-02-15T01:41:06;3.90;1.00
18541;DHT22;9400;50.924;5.328;2023-02-15T01:43:55;3.80;1.00
18541;DHT22;9400;50.924;5.328;2023-02-15T01:46:27;3.70;99.90
18541;DHT22;9400;50.924;5.328;2023-02-15T01:49:02;3.70;99.90
18541;DHT22;9400;50.924;5.328;2023-02-15T01:51:32;3.70;1.00
18541;DHT22;9400;50.924;5.328;2023-02-15T01:54:04;3.80;1.00
18541;DHT22;9400;50.924;5.328;2023-02-15T01:56:35;3.70;1.00
18541;DHT22;9400;50.924;5.328;2023-02-15T01:59:06;3.70;34.10
18541;DHT22;9400;50.924;5.328;2023-02-15T02:01:35;3.70;1.00
18541;DHT22;9400;50.924;5.328;2023-02-15T02:04:09;3.70;1.00
18541;DHT22;9400;50.924;5.328;2023-02-15T02:06:39;3.70;1.00
18541;DHT22;9400;50.924;5.328;2023-02-15T02:09:07;3.70;99.90
18541;DHT22;9400;50.924;5.328;2023-02-15T02:11:36;3.80;1.00
18541;DHT22;9400;50.924;5.328;2023-02-15T02:14:04;3.80;1.00
18541;DHT22;9400;50.924;5.328;2023-02-15T02:16:40;3.80;46.90
18541;DHT22;9400;50.924;5.328;2023-02-15T02:19:51;3.80;99.90
18541;DHT22;9400;50.924;5.328;2023-02-15T02:22:42;3.80;99.90
18541;DHT22;9400;50.924;5.328;2023-02-15T02:25:58;3.70;99.90
18541;DHT22;9400;50.924;5.328;2023-02-15T02:28:51;3.60;99.90
18541;DHT22;9400;50.924;5.328;2023-02-15T02:31:39;3.60;99.90
18541;DHT22;9400;50.924;5.328;2023-02-15T02:34:16;3.60;99.90
18541;DHT22;9400;50.924;5.328;2023-02-15T02:36:52;3.50;1.00
18541;DHT22;9400;50.924;5.328;2023-02-15T02:39:28;3.40;1.00
18541;DHT22;9400;50.924;5.328;2023-02-15T02:42:04;3.50;99.90
18541;DHT22;9400;50.924;5.328;2023-02-15T02:44:40;3.40;99.90
18541;DHT22;9400;50.924;5.328;2023-02-15T02:47:13;3.40;99.90
18541;DHT22;9400;50.924;5.328;2023-02-15T02:49:44;3.40;1.00
18541;DHT22;9400;50.924;5.328;2023-02-15T02:52:35;3.30;1.00
18541;DHT22;9400;50.924;5.328;2023-02-15T02:55:05;3.40;99.90
18541;DHT22;9400;50.924;5.328;2023-02-15T02:57:34;3.30;1.00
18541;DHT22;9400;50.924;5.328;2023-02-15T03:00:05;3.30;1.00
18541;DHT22;9400;50.924;5.328;2023-02-15T03:02:38;3.30;1.00
18541;DHT22;9400;50.924;5.328;2023-02-15T03:05:11;3.20;1.00
18541;DHT22;9400;50.924;5.328;2023-02-15T03:07:42;3.30;68.90
18541;DHT22;9400;50.924;5.328;2023-02-15T03:10:12;3.20;99.90
18541;DHT22;9400;50.924;5.328;2023-02-15T03:12:41;3.20;99.90
18541;DHT22;9400;50.924;5.328;2023-02-15T03:15:11;3.20;1.00
18541;DHT22;9400;50.924;5.328;2023-02-15T03:17:42;3.20;1.00
18541;DHT22;9400;50.924;5.328;2023-02-15T03:20:20;3.20;1.00
18541;DHT22;9400;50.924;5.328;2023-02-15T03:22:54;3.20;99.90
18541;DHT22;9400;50.924;5.328;2023-02-15T03:25:25;3.10;99.90
18541;DHT22;9400;50.924;5.328;2023-02-15T03:27:56;3.20;1.00
18541;DHT22;9400;50.924;5.328;2023-02-15T03:30:29;3.20;1.00
18541;DHT22;9400;50.924;5.328;2023-02-15T03:32:59;3.20;1.00
18541;DHT22;9400;50.924;5.328;2023-02-15T03:35:36;3.20;1.00
18541;DHT22;9400;50.924;5.328;2023-02-15T03:38:07;3.20;1.00
18541;DHT22;9400;50.924;5.328;2023-02-15T03:40:38;3.20;1.00
18541;DHT22;9400;50.924;5.328;2023-02-15T03:43:30;3.20;5.00
18541;DHT22;9400;50.924;5.328;2023-02-15T03:46:08;3.20;1.00
18541;DHT22;9400;50.924;5.328;2023-02-15T03:48:42;3.20;1.00
18541;DHT22;9400;50.924;5.328;2023-02-15T03:51:18;3.20;1.00
18541;DHT22;9400;50.924;5.328;2023-02-15T03:54:06;3.20;99.90
18541;DHT22;9400;50.924;5.328;2023-02-15T03:56:35;3.10;99.90
18541;DHT22;9400;50.924;5.328;2023-02-15T03:59:04;3.10;1.00
18541;DHT22;9400;50.924;5.328;2023-02-15T04:01:58;3.10;1.00
18541;DHT22;9400;50.924;5.328;2023-02-15T04:04:34;3.10;1.00
18541;DHT22;9400;50.924;5.328;2023-02-15T04:07:05;3.00;99.90
18541;DHT22;9400;50.924;5.328;2023-02-15T04:09:34;3.00;99.90
18541;DHT22;9400;50.924;5.328;2023-02-15T04:12:19;2.90;1.00
18541;DHT22;9400;50.924;5.328;2023-02-15T04:14:46;3.00;1.00
18541;DHT22;9400;50.924;5.328;2023-02-15T04:17:31;3.00;1.00
18541;DHT22;9400;50.924;5.328;2023-02-15T04:19:59;2.90;1.00
18541;DHT22;9400;50.924;5.328;2023-02-15T04:22:45;2.90;1.00
18541;DHT22;9400;50.924;5.328;2023-02-15T04:25:30;2.90;1.00
18541;DHT22;9400;50.924;5.328;2023-02-15T04:27:57;2.80;1.00
18541;DHT22;9400;50.924;5.328;2023-02-15T04:30:26;2.80;1.00
18541;DHT22;9400;50.924;5.328;2023-02-15T04:32:54;2.80;1.00
18541;DHT22;9400;50.924;5.328;2023-02-15T04:35:23;2.80;1.00
18541;DHT22;9400;50.924;5.328;2023-02-15T04:37:53;2.80;1.00
18541;DHT22;9400;50.924;5.328;2023-02-15T04:40:21;2.70;99.90
18541;DHT22;9400;50.924;5.328;2023-02-15T04:42:49;2.70;1.00
18541;DHT22;9400;50.924;5.328;2023-02-15T04:45:17;2.70;99.90
18541;DHT22;9400;50.924;5.328;2023-02-15T04:47:45;2.70;99.90
18541;DHT22;9400;50.924;5.328;2023-02-15T04:50:13;2.70;99.90
18541;DHT22;9400;50.924;5.328;2023-02-15T04:52:43;2.70;1.00
18541;DHT22;9400;50.924;5.328;2023-02-15T04:55:12;2.80;99.90
18541;DHT22;9400;50.924;5.328;2023-02-15T04:57:40;2.80;29.90
18541;DHT22;9400;50.924;5.328;2023-02-15T05:00:08;2.60;1.00
18541;DHT22;9400;50.924;5.328;2023-02-15T05:02:37;2.70;1.00
18541;DHT22;9400;50.924;5.328;2023-02-15T05:05:04;2.70;1.00
18541;DHT22;9400;50.924;5.328;2023-02-15T05:07:32;2.70;1.00
18541;DHT22;9400;50.924;5.328;2023-02-15T05:10:00;2.70;1.00
18541;DHT22;9400;50.924;5.328;2023-02-15T05:12:29;2.80;1.00
18541;DHT22;9400;50.924;5.328;2023-02-15T05:14:57;2.80;1.00
18541;DHT22;9400;50.924;5.328;2023-02-15T05:17:24;2.70;99.90
18541;DHT22;9400;50.924;5.328;2023-02-15T05:19:52;2.70;1.00
18541;DHT22;9400;50.924;5.328;2023-02-15T05:22:20;2.70;1.00
18541;DHT22;9400;50.924;5.328;2023-02-15T05:24:47;2.70;1.00
18541;DHT22;9400;50.924;5.328;2023-02-15T05:27:34;2.60;1.00
18541;DHT22;9400;50.924;5.328;2023-02-15T05:30:19;2.70;1.00
18541;DHT22;9400;50.924;5.328;2023-02-15T05:32:47;2.60;99.90
18541;DHT22;9400;50.924;5.328;2023-02-15T05:35:17;2.70;1.00
18541;DHT22;9400;50.924;5.328;2023-02-15T05:37:49;2.60;99.90
18541;DHT22;9400;50.924;5.328;2023-02-15T05:40:16;2.60;99.90
18541;DHT22;9400;50.924;5.328;2023-02-15T05:42:45;2.60;99.90
18541;DHT22;9400;50.924;5.328;2023-02-15T05:45:13;2.60;99.90
18541;DHT22;9400;50.924;5.328;2023-02-15T05:47:41;2.60;99.90
18541;DHT22;9400;50.924;5.328;2023-02-15T05:50:09;2.60;99.90
18541;DHT22;9400;50.924;5.328;2023-02-15T05:52:37;2.50;99.90
18541;DHT22;9400;50.924;5.328;2023-02-15T05:55:06;2.60;1.00
18541;DHT22;9400;50.924;5.328;2023-02-15T05:57:35;2.60;4.40
18541;DHT22;9400;50.924;5.328;2023-02-15T06:00:05;2.60;1.00
18541;DHT22;9400;50.924;5.328;2023-02-15T06:02:34;2.60;1.00
18541;DHT22;9400;50.924;5.328;2023-02-15T06:05:02;2.50;99.90
18541;DHT22;9400;50.924;5.328;2023-02-15T06:07:30;2.50;99.90
18541;DHT22;9400;50.924;5.328;2023-02-15T06:09:58;2.50;99.90
18541;DHT22;9400;50.924;5.328;2023-02-15T06:12:25;2.50;99.90
18541;DHT22;9400;50.924;5.328;2023-02-15T06:14:53;2.50;99.90
18541;DHT22;9400;50.924;5.328;2023-02-15T06:17:22;2.30;99.90
18541;DHT22;9400;50.924;5.328;2023-02-15T06:19:50;2.30;51.90
18541;DHT22;9400;50.924;5.328;2023-02-15T06:22:17;2.40;1.00
18541;DHT22;9400;50.924;5.328;2023-02-15T06:24:46;2.40;1.00
18541;DHT22;9400;50.924;5.328;2023-02-15T06:27:14;2.30;1.00
18541;DHT22;9400;50.924;5.328;2023-02-15T06:29:42;2.40;99.90
18541;DHT22;9400;50.924;5.328;2023-02-15T06:32:10;2.40;1.00
18541;DHT22;9400;50.924;5.328;2023-02-15T06:34:39;2.40;1.00
18541;DHT22;9400;50.924;5.328;2023-02-15T06:37:06;2.40;1.00
18541;DHT22;9400;50.924;5.328;2023-02-15T06:39:34;2.30;1.00
18541;DHT22;9400;50.924;5.328;2023-02-15T06:42:02;2.40;99.90
18541;DHT22;9400;50.924;5.328;2023-02-15T06:44:30;2.40;93.80
18541;DHT22;9400;50.924;5.328;2023-02-15T06:46:58;2.50;1.00
18541;DHT22;9400;50.924;5.328;2023-02-15T06:49:26;2.40;1.00
18541;DHT22;9400;50.924;5.328;2023-02-15T06:51:55;2.40;54.30
18541;DHT22;9400;50.924;5.328;2023-02-15T06:54:23;2.50;99.90
18541;DHT22;9400;50.924;5.328;2023-02-15T06:56:50;2.50;1.00
18541;DHT22;9400;50.924;5.328;2023-02-15T06:59:18;2.50;1.00
18541;DHT22;9400;50.924;5.328;2023-02-15T07:01:46;2.60;6.30
18541;DHT22;9400;50.924;5.328;2023-02-15T07:04:13;2.60;1.00
18541;DHT22;9400;50.924;5.328;2023-02-15T07:06:42;2.50;99.90
18541;DHT22;9400;50.924;5.328;2023-02-15T07:09:11;2.50;1.00
18541;DHT22;9400;50.924;5.328;2023-02-15T07:11:39;2.50;1.00
18541;DHT22;9400;50.924;5.328;2023-02-15T07:14:24;2.50;1.00
18541;DHT22;9400;50.924;5.328;2023-02-15T07:16:53;2.40;1.00
18541;DHT22;9400;50.924;5.328;2023-02-15T07:19:20;2.50;1.00
18541;DHT22;9400;50.924;5.328;2023-02-15T07:21:47;2.50;1.00
18541;DHT22;9400;50.924;5.328;2023-02-15T07:24:17;2.60;1.00
18541;DHT22;9400;50.924;5.328;2023-02-15T07:26:44;2.70;99.90
18541;DHT22;9400;50.924;5.328;2023-02-15T07:29:12;2.70;99.90
18541;DHT22;9400;50.924;5.328;2023-02-15T07:31:39;2.80;99.90
18541;DHT22;9400;50.924;5.328;2023-02-15T07:34:08;2.80;70.40
18541;DHT22;9400;50.924;5.328;2023-02-15T07:36:36;2.90;1.00
18541;DHT22;9400;50.924;5.328;2023-02-15T07:39:04;3.00;99.90
18541;DHT22;9400;50.924;5.328;2023-02-15T07:41:33;3.10;99.90
18541;DHT22;9400;50.924;5.328;2023-02-15T07:44:01;3.20;99.90
18541;DHT22;9400;50.924;5.328;2023-02-15T07:46:28;3.20;99.90
18541;DHT22;9400;50.924;5.328;2023-02-15T07:48:56;3.40;99.90
18541;DHT22;9400;50.924;5.328;2023-02-15T07:51:24;3.50;1.00
18541;DHT22;9400;50.924;5.328;2023-02-15T07:53:52;3.60;17.00
18541;DHT22;9400;50.924;5.328;2023-02-15T07:56:21;3.60;1.00
18541;DHT22;9400;50.924;5.328;2023-02-15T07:58:50;3.70;1.00
18541;DHT22;9400;50.924;5.328;2023-02-15T08:01:19;3.70;1.00
18541;DHT22;9400;50.924;5.328;2023-02-15T08:03:46;3.70;1.00
18541;DHT22;9400;50.924;5.328;2023-02-15T08:06:14;3.80;1.00
18541;DHT22;9400;50.924;5.328;2023-02-15T08:08:45;3.80;1.00
18541;DHT22;9400;50.924;5.328;2023-02-15T08:11:18;3.90;1.00
18541;DHT22;9400;50.924;5.328;2023-02-15T08:14:05;4.00;1.00
18541;DHT22;9400;50.924;5.328;2023-02-15T08:16:35;4.10;1.00
18541;DHT22;9400;50.924;5.328;2023-02-15T08:19:05;4.30;1.00
18541;DHT22;9400;50.924;5.328;2023-02-15T08:21:35;4.40;1.00
18541;DHT22;9400;50.924;5.328;2023-02-15T08:24:03;4.40;1.00
18541;DHT22;9400;50.924;5.328;2023-02-15T08:26:32;4.60;1.00
18541;DHT22;9400;50.924;5.328;2023-02-15T08:29:03;4.60;99.90
18541;DHT22;9400;50.924;5.328;2023-02-15T08:31:31;4.70;1.00
18541;DHT22;9400;50.924;5.328;2023-02-15T08:33:59;4.80;1.00
18541;DHT22;9400;50.924;5.328;2023-02-15T08:36:28;4.90;1.00
18541;DHT22;9400;50.924;5.328;2023-02-15T08:38:58;5.00;99.90
18541;DHT22;9400;50.924;5.328;2023-02-15T08:41:27;5.00;1.00
18541;DHT22;9400;50.924;5.328;2023-02-15T08:43:57;5.10;1.00
18541;DHT22;9400;50.924;5.328;2023-02-15T08:46:28;5.10;1.00
18541;DHT22;9400;50.924;5.328;2023-02-15T08:48:57;5.30;1.00
18541;DHT22;9400;50.924;5.328;2023-02-15T08:51:26;5.40;99.90
18541;DHT22;9400;50.924;5.328;2023-02-15T08:53:56;5.50;37.60
18541;DHT22;9400;50.924;5.328;2023-02-15T08:56:25;5.60;1.00
18541;DHT22;9400;50.924;5.328;2023-02-15T08:58:54;5.70;28.00
18541;DHT22;9400;50.924;5.328;2023-02-15T09:01:23;5.80;1.00
18541;DHT22;9400;50.924;5.328;2023-02-15T09:03:57;5.90;1.00
18541;DHT22;9400;50.924;5.328;2023-02-15T09:06:25;6.00;99.90
18541;DHT22;9400;50.924;5.328;2023-02-15T09:08:53;6.10;99.90
18541;DHT22;9400;50.924;5.328;2023-02-15T09:11:25;6.20;1.00
18541;DHT22;9400;50.924;5.328;2023-02-15T09:13:55;6.30;92.40
18541;DHT22;9400;50.924;5.328;2023-02-15T09:16:25;6.40;99.90
18541;DHT22;9400;50.924;5.328;2023-02-15T09:18:55;6.50;1.00
18541;DHT22;9400;50.924;5.328;2023-02-15T09:21:25;6.60;59.80
18541;DHT22;9400;50.924;5.328;2023-02-15T09:23:57;6.80;99.90
18541;DHT22;9400;50.924;5.328;2023-02-15T09:26:26;6.90;1.00
18541;DHT22;9400;50.924;5.328;2023-02-15T09:28:57;7.00;1.00
18541;DHT22;9400;50.924;5.328;2023-02-15T09:31:29;7.20;71.50
18541;DHT22;9400;50.924;5.328;2023-02-15T09:33:59;7.50;1.00
18541;DHT22;9400;50.924;5.328;2023-02-15T09:36:30;7.60;1.00
18541;DHT22;9400;50.924;5.328;2023-02-15T09:39:01;7.80;99.90
18541;DHT22;9400;50.924;5.328;2023-02-15T09:41:58;8.00;1.00
18541;DHT22;9400;50.924;5.328;2023-02-15T09:44:42;8.20;89.70
18541;DHT22;9400;50.924;5.328;2023-02-15T09:47:34;8.30;1.00
18541;DHT22;9400;50.924;5.328;2023-02-15T09:50:11;8.50;99.90
18541;DHT22;9400;50.924;5.328;2023-02-15T09:52:53;8.50;1.00
18541;DHT22;9400;50.924;5.328;2023-02-15T09:55:42;8.60;1.00
18541;DHT22;9400;50.924;5.328;2023-02-15T09:58:20;8.80;1.00
18541;DHT22;9400;50.924;5.328;2023-02-15T10:00:57;8.90;1.00
18541;DHT22;9400;50.924;5.328;2023-02-15T10:03:38;9.00;1.00
18541;DHT22;9400;50.924;5.328;2023-02-15T10:06:27;9.00;99.90
18541;DHT22;9400;50.924;5.328;2023-02-15T10:11:54;9.30;1.00
18541;DHT22;9400;50.924;5.328;2023-02-15T10:14:35;9.40;1.00
18541;DHT22;9400;50.924;5.328;2023-02-15T10:17:14;9.50;99.90
18541;DHT22;9400;50.924;5.328;2023-02-15T10:19:52;9.60;99.90
18541;DHT22;9400;50.924;5.328;2023-02-15T10:22:33;9.60;1.00
18541;DHT22;9400;50.924;5.328;2023-02-15T10:25:16;9.60;99.90
18541;DHT22;9400;50.924;5.328;2023-02-15T10:27:46;9.70;99.90
18541;DHT22;9400;50.924;5.328;2023-02-15T10:30:14;9.80;1.00
18541;DHT22;9400;50.924;5.328;2023-02-15T10:32:54;9.90;38.30
18541;DHT22;9400;50.924;5.328;2023-02-15T10:35:30;10.00;1.00
18541;DHT22;9400;50.924;5.328;2023-02-15T10:38:13;10.00;1.00
18541;DHT22;9400;50.924;5.328;2023-02-15T10:40:52;10.20;25.70
18541;DHT22;9400;50.924;5.328;2023-02-15T10:46:38;10.50;99.90
18541;DHT22;9400;50.924;5.328;2023-02-15T10:49:23;10.60;99.90
18541;DHT22;9400;50.924;5.328;2023-02-15T10:52:03;10.70;99.90
18541;DHT22;9400;50.924;5.328;2023-02-15T10:54:42;10.80;99.90
18541;DHT22;9400;50.924;5.328;2023-02-15T10:57:16;11.00;99.90
18541;DHT22;9400;50.924;5.328;2023-02-15T10:59:57;11.00;99.90
18541;DHT22;9400;50.924;5.328;2023-02-15T11:02:49;11.10;1.00
18541;DHT22;9400;50.924;5.328;2023-02-15T11:05:30;11.20;99.90
18541;DHT22;9400;50.924;5.328;2023-02-15T11:08:01;11.30;1.00
18541;DHT22;9400;50.924;5.328;2023-02-15T11:10:36;11.50;99.90
18541;DHT22;9400;50.924;5.328;2023-02-15T11:13:10;11.60;1.00
18541;DHT22;9400;50.924;5.328;2023-02-15T11:15:42;11.60;1.00
18541;DHT22;9400;50.924;5.328;2023-02-15T11:18:14;11.60;99.90
18541;DHT22;9400;50.924;5.328;2023-02-15T11:20:52;11.70;99.90
18541;DHT22;9400;50.924;5.328;2023-02-15T11:23:22;11.90;1.00
18541;DHT22;9400;50.924;5.328;2023-02-15T11:25:56;12.10;99.90
18541;DHT22;9400;50.924;5.328;2023-02-15T11:28:30;12.10;1.00
18541;DHT22;9400;50.924;5.328;2023-02-15T11:31:09;12.00;99.90
18541;DHT22;9400;50.924;5.328;2023-02-15T11:33:41;12.20;56.90
18541;DHT22;9400;50.924;5.328;2023-02-15T11:36:15;12.30;99.90
18541;DHT22;9400;50.924;5.328;2023-02-15T11:38:45;12.40;99.90
18541;DHT22;9400;50.924;5.328;2023-02-15T11:41:19;12.60;9.40
18541;DHT22;9400;50.924;5.328;2023-02-15T11:43:54;12.80;99.90
18541;DHT22;9400;50.924;5.328;2023-02-15T11:46:24;12.70;1.00
18541;DHT22;9400;50.924;5.328;2023-02-15T11:48:51;12.80;9.40
18541;DHT22;9400;50.924;5.328;2023-02-15T11:51:21;13.10;99.90
18541;DHT22;9400;50.924;5.328;2023-02-15T11:53:50;13.30;1.00
18541;DHT22;9400;50.924;5.328;2023-02-15T11:56:21;13.60;99.90
18541;DHT22;9400;50.924;5.328;2023-02-15T11:58:52;13.80;99.90
18541;DHT22;9400;50.924;5.328;2023-02-15T12:01:30;14.00;99.90
18541;DHT22;9400;50.924;5.328;2023-02-15T12:04:01;14.10;1.00
18541;DHT22;9400;50.924;5.328;2023-02-15T12:06:33;13.90;1.00
18541;DHT22;9400;50.924;5.328;2023-02-15T12:09:11;14.00;1.00
18541;DHT22;9400;50.924;5.328;2023-02-15T12:11:43;14.00;1.00
18541;DHT22;9400;50.924;5.328;2023-02-15T12:14:12;14.10;1.90
18541;DHT22;9400;50.924;5.328;2023-02-15T12:16:43;14.20;1.00
18541;DHT22;9400;50.924;5.328;2023-02-15T12:19:30;14.60;1.00
18541;DHT22;9400;50.924;5.328;2023-02-15T12:22:00;14.70;1.00
18541;DHT22;9400;50.924;5.328;2023-02-15T12:24:30;15.10;1.00
18541;DHT22;9400;50.924;5.328;2023-02-15T12:27:03;15.00;1.00
18541;DHT22;9400;50.924;5.328;2023-02-15T12:29:39;15.10;1.00
18541;DHT22;9400;50.924;5.328;2023-02-15T12:32:11;15.00;1.00
18541;DHT22;9400;50.924;5.328;2023-02-15T12:34:44;14.80;1.00
18541;DHT22;9400;50.924;5.328;2023-02-15T12:37:17;14.90;1.00
18541;DHT22;9400;50.924;5.328;2023-02-15T12:39:55;15.40;1.00
18541;DHT22;9400;50.924;5.328;2023-02-15T12:42:25;15.40;1.00
18541;DHT22;9400;50.924;5.328;2023-02-15T12:44:56;15.40;1.00
18541;DHT22;9400;50.924;5.328;2023-02-15T12:47:24;16.20;1.00
18541;DHT22;9400;50.924;5.328;2023-02-15T12:50:13;16.60;1.00
18541;DHT22;9400;50.924;5.328;2023-02-15T12:52:46;16.70;1.00
18541;DHT22;9400;50.924;5.328;2023-02-15T12:55:21;16.40;1.00
18541;DHT22;9400;50.924;5.328;2023-02-15T12:58:06;16.00;1.00
18541;DHT22;9400;50.924;5.328;2023-02-15T13:00:34;16.00;1.00
18541;DHT22;9400;50.924;5.328;2023-02-15T13:03:03;16.10;1.00
18541;DHT22;9400;50.924;5.328;2023-02-15T13:05:36;16.10;1.00
18541;DHT22;9400;50.924;5.328;2023-02-15T13:08:11;16.30;1.00
18541;DHT22;9400;50.924;5.328;2023-02-15T13:10:54;17.20;1.00
18541;DHT22;9400;50.924;5.328;2023-02-15T13:13:26;18.30;1.00
18541;DHT22;9400;50.924;5.328;2023-02-15T13:15:58;17.60;1.00
18541;DHT22;9400;50.924;5.328;2023-02-15T13:18:30;16.90;1.00
18541;DHT22;9400;50.924;5.328;2023-02-15T13:21:08;16.70;1.00
18541;DHT22;9400;50.924;5.328;2023-02-15T13:23:38;16.30;1.00
18541;DHT22;9400;50.924;5.328;2023-02-15T13:26:14;16.00;1.00
18541;DHT22;9400;50.924;5.328;2023-02-15T13:28:46;16.00;1.00
18541;DHT22;9400;50.924;5.328;2023-02-15T13:31:17;16.20;1.00
18541;DHT22;9400;50.924;5.328;2023-02-15T13:33:48;16.10;1.00
18541;DHT22;9400;50.924;5.328;2023-02-15T13:36:22;16.30;1.00
18541;DHT22;9400;50.924;5.328;2023-02-15T13:38:59;16.20;1.00
18541;DHT22;9400;50.924;5.328;2023-02-15T13:41:33;16.80;1.00
18541;DHT22;9400;50.924;5.328;2023-02-15T13:44:11;17.20;1.00
18541;DHT22;9400;50.924;5.328;2023-02-15T13:47:01;17.60;1.00
18541;DHT22;9400;50.924;5.328;2023-02-15T13:49:41;17.70;1.00
18541;DHT22;9400;50.924;5.328;2023-02-15T13:52:19;17.90;1.00
18541;DHT22;9400;50.924;5.328;2023-02-15T13:55:06;18.00;1.00
18541;DHT22;9400;50.924;5.328;2023-02-15T13:58:01;17.60;1.00
18541;DHT22;9400;50.924;5.328;2023-02-15T14:00:43;17.40;1.00
18541;DHT22;9400;50.924;5.328;2023-02-15T14:03:41;17.10;1.00
18541;DHT22;9400;50.924;5.328;2023-02-15T14:06:34;16.90;1.00
18541;DHT22;9400;50.924;5.328;2023-02-15T14:09:15;17.40;1.00
18541;DHT22;9400;50.924;5.328;2023-02-15T14:11:56;17.60;1.00
18541;DHT22;9400;50.924;5.328;2023-02-15T14:14:41;18.20;1.00
18541;DHT22;9400;50.924;5.328;2023-02-15T14:17:20;18.30;1.00
18541;DHT22;9400;50.924;5.328;2023-02-15T14:19:54;17.80;1.00
18541;DHT22;9400;50.924;5.328;2023-02-15T14:22:29;17.40;1.00
18541;DHT22;9400;50.924;5.328;2023-02-15T14:25:17;17.60;1.00
18541;DHT22;9400;50.924;5.328;2023-02-15T14:27:54;18.10;1.00
18541;DHT22;9400;50.924;5.328;2023-02-15T14:30:25;18.80;1.00
18541;DHT22;9400;50.924;5.328;2023-02-15T14:32:59;18.80;1.00
18541;DHT22;9400;50.924;5.328;2023-02-15T14:35:29;19.00;1.00
18541;DHT22;9400;50.924;5.328;2023-02-15T14:38:02;19.20;1.00
18541;DHT22;9400;50.924;5.328;2023-02-15T14:40:47;18.50;1.00
18541;DHT22;9400;50.924;5.328;2023-02-15T14:43:37;18.10;1.00
18541;DHT22;9400;50.924;5.328;2023-02-15T14:46:16;17.80;1.00
18541;DHT22;9400;50.924;5.328;2023-02-15T14:48:49;17.70;1.00
18541;DHT22;9400;50.924;5.328;2023-02-15T14:54:58;17.30;1.00
18541;DHT22;9400;50.924;5.328;2023-02-15T14:57:28;17.10;1.00
18541;DHT22;9400;50.924;5.328;2023-02-15T14:59:58;16.70;1.00
18541;DHT22;9400;50.924;5.328;2023-02-15T15:02:29;16.50;1.00
18541;DHT22;9400;50.924;5.328;2023-02-15T15:05:10;16.00;1.00
18541;DHT22;9400;50.924;5.328;2023-02-15T15:07:43;15.80;1.00
18541;DHT22;9400;50.924;5.328;2023-02-15T15:10:42;15.70;1.00
18541;DHT22;9400;50.924;5.328;2023-02-15T15:13:35;15.50;1.00
18541;DHT22;9400;50.924;5.328;2023-02-15T15:19:11;15.00;1.00
18541;DHT22;9400;50.924;5.328;2023-02-15T15:22:02;15.10;1.00
18541;DHT22;9400;50.924;5.328;2023-02-15T15:24:52;15.00;1.00
18541;DHT22;9400;50.924;5.328;2023-02-15T15:27:39;15.00;1.00
18541;DHT22;9400;50.924;5.328;2023-02-15T15:37:20;14.70;1.00
18541;DHT22;9400;50.924;5.328;2023-02-15T15:46:40;14.30;1.00
18541;DHT22;9400;50.924;5.328;2023-02-15T15:49:16;14.30;1.00
18541;DHT22;9400;50.924;5.328;2023-02-15T15:51:45;14.20;1.00
18541;DHT22;9400;50.924;5.328;2023-02-15T15:54:17;14.20;1.00
18541;DHT22;9400;50.924;5.328;2023-02-15T15:56:48;14.10;1.00
18541;DHT22;9400;50.924;5.328;2023-02-15T15:59:20;14.10;1.00
18541;DHT22;9400;50.924;5.328;2023-02-15T16:01:49;14.00;1.00
18541;DHT22;9400;50.924;5.328;2023-02-15T16:04:25;13.90;1.00
18541;DHT22;9400;50.924;5.328;2023-02-15T16:06:53;13.80;1.00
18541;DHT22;9400;50.924;5.328;2023-02-15T16:09:23;13.70;1.00
18541;DHT22;9400;50.924;5.328;2023-02-15T16:11:55;13.60;1.00
18541;DHT22;9400;50.924;5.328;2023-02-15T16:14:29;13.50;99.90
18541;DHT22;9400;50.924;5.328;2023-02-15T16:17:00;13.40;1.00
18541;DHT22;9400;50.924;5.328;2023-02-15T16:19:32;13.30;99.90
18541;DHT22;9400;50.924;5.328;2023-02-15T16:22:02;13.20;1.00
18541;DHT22;9400;50.924;5.328;2023-02-15T16:25:02;13.10;1.00
18541;DHT22;9400;50.924;5.328;2023-02-15T16:27:37;13.00;1.00
18541;DHT22;9400;50.924;5.328;2023-02-15T16:30:27;12.90;1.00
18541;DHT22;9400;50.924;5.328;2023-02-15T16:33:04;12.80;1.00
18541;DHT22;9400;50.924;5.328;2023-02-15T16:35:33;12.70;1.00
18541;DHT22;9400;50.924;5.328;2023-02-15T16:38:01;12.70;99.90
18541;DHT22;9400;50.924;5.328;2023-02-15T16:40:40;12.70;1.00
18541;DHT22;9400;50.924;5.328;2023-02-15T16:43:18;12.60;1.00
18541;DHT22;9400;50.924;5.328;2023-02-15T16:45:56;12.60;99.90
18541;DHT22;9400;50.924;5.328;2023-02-15T16:48:26;12.60;1.00
18541;DHT22;9400;50.924;5.328;2023-02-15T16:50:56;12.60;99.90
18541;DHT22;9400;50.924;5.328;2023-02-15T16:53:26;12.40;10.70
18541;DHT22;9400;50.924;5.328;2023-02-15T16:55:58;12.30;99.90
18541;DHT22;9400;50.924;5.328;2023-02-15T16:58:30;12.30;1.00
18541;DHT22;9400;50.924;5.328;2023-02-15T17:00:59;12.20;1.00
18541;DHT22;9400;50.924;5.328;2023-02-15T17:03:28;12.10;1.00
18541;DHT22;9400;50.924;5.328;2023-02-15T17:05:58;12.10;99.90
18541;DHT22;9400;50.924;5.328;2023-02-15T17:08:29;12.10;1.00
18541;DHT22;9400;50.924;5.328;2023-02-15T17:11:12;12.10;99.90
18541;DHT22;9400;50.924;5.328;2023-02-15T17:14:09;11.90;1.00